Timeline UpdatesTrip UpdatesNews PostsPvt Posts♥♥Travel TipsAdmin PostsConv PostsFollowed PostsChat RequestsBlog PostsPNR Posts

Disclaimer
Search
 
 
Tue Oct 21, 2014 09:18:52 ISTHomeTrainsΣChainsAtlasPNRForumGalleryNewsFAQTripsMembersLoginFeedback
No Recent News for this Train
Other Trains in the News **new
Latest...
⇐ Return Journey: Train# 53043

53044/Rajgir - Howrah Fast Passenger (UnReserved)

Time-Table HAS CHANGED.
Sep 03 2014 (12:25AM)
Change Departure Station:
Change Arrival Station:
Post a Train Travel TipPost a Train Travel Tip **new
Post a Comment/Question/Picture/VideoPost a Comment/Question/Picture/Video
Pantry/Catering
✕ NO Pantry Car
✕ NO Catering
RSA - Rake Sharing
Rake/Coach Composition
Loco
HWH WDM 3A/3D
News    PNR    Forum    Time-Table    Availability    Fare Chart    Map    Arr/Dep History    Trips    Gallery    ΣChains    X/O    Timeline    
Travel Time: 23h 30m    72 halts    Distance: 657 km    Avg Speed: 27 km/hr
Type: Passenger
Zone: ER/Eastern
Departs @ 12:40 (Avg 1h 16m late)
Platform# ???
SMTWTFS
Rajgir/RGD 
Arrives @ 12:10 +1 night (Avg 2h 46m late)
Platform# 1
SMTWTFS
Kolkata Howrah Junction/HWH 

72 halts. 158 intermediate Stations between Rajgir and Kolkata Howrah Junction

Show ALL intermediate Stations  Show Old Time-Table

#TrkCodeStation NameX/OArrivesAvgDepartsAvgHaltPFDay#KmSpeedElevZoneAddress
1|--|RGDRajgir (3)»  -12:40+1:16--10.03871mECRRajgir, Bihar
2|--|NLDNalanda (2)  12:58+1:1412:59+1:371m--111.34063mECRNational Highway 82, Bihar
3|--|BEHSBihar Sharif (2)  13:18+1:4313:23+1:465m--123.83656mECR06112-222306, Bihar
4|--|WENAWena (2)  13:46+1:4313:47+1:441m--137.8947mECRWena, Bihar
5|--|HRTHarnaut (3)X  14:21+1:4314:28+1:417m--142.95349mECRHarnaut, Bihar
6|--|BKPBakhtiyarpur Junction (5)XO  14:40+1:2415:10+2:0730m--153.66851mECRPatna, Bihar
7/==/ATLAthmal Gola (2)  15:18+2:2015:19+2:211m--162.65052mECRPatna, Bihar
8/==/BARHBarh (3)X  15:30+1:4215:32+1:482m--171.77749mECRBarh, Bihar
9/==/PHKPunarakh (2)  15:40+2:3515:41+2:351m--181.92951mECRPunarakh, Bihar
10/==/MORMor (2)XO  15:58+2:3416:27+2:2029m--190.14946mECRMor, Bihar
11/==/MKAMokama Junction (4)  16:36+1:5016:40+1:494m--197.45648mECRPatna, Bihar
12/==/HTZHathidah Junction (2)X  16:49+2:1016:51+2:102m11105.84650mECRMusahari, Bihar
13/==/RDUMRampur Dumra (3)OO  16:56+2:2416:57+2:291m--1109.63746mECRNational Highway 80, Bihar
14/==/BRYABarhiya (3)  17:06+1:5617:08+1:572m--1115.22247mECRBarahiya, Bihar
15/==/MKBMankatha  17:34+2:2217:40+2:196m--1124.63047mECRNational Highway 80, Bihar
16/==/LKRLuckeesarai Junction (2)X  17:51+2:1417:53+2:152m--1130.21252mECRLakhisarai, Bihar
17/==/KIULKiul Junction (5)X  18:00+1:3318:25+1:2625m--1131.63653mECRDist. Lakhisarai, Bihar
18!==!DNREDhanauri  18:35+2:0618:37+2:082m--1137.64948mERNational Highway 80, Bihar
19!==!URENUrenX  18:43+2:2118:45+2:202m--1142.55845mERUren, Bihar
20!==!KJHKajra (2)  18:50+2:1018:51+2:131m--1147.36250mERLakhisarai District, Bihar
21|==|AHAAbhaipur (3)  18:58+1:5918:59+2:001m--1154.64852mERAbhaipur, Bihar
22|==|MSDNMasudan (2)  19:04+2:1819:05+2:181m--1158.66045mERMasudan, Bihar
23|==|DRHDharhara (2)  19:11+2:1819:12+2:181m--1164.61855mERDharhara, Bihar
24|==|DRTPDasharathpur (2)  19:30+2:0719:31+2:091m--1170.03248mERDharhara, Bihar
25|=-|JMPJamalpur Junction (4)  19:43+1:2619:58+1:2615m11176.44259mERDist: Munger 06344-243101, Bihar
26|-=|RPURRatanpur (2)  20:07+2:1420:08+2:141m--1182.75846mERRatanpur Railway Station, Bihar
27|==|BUPBariarpur (3)  20:13+2:3420:14+2:371m--1187.51142mERMunger, Bihar
28|==|KPRDKalyanpur Road (3)  20:21+2:1820:22+2:191m--1188.81040mERMunger, Bihar
29|==|GNNAGangani (2)  20:29+2:1920:30+2:191m--1190.013338mERGangania, Bihar
30|==|SGGSultanGanj (3)  20:37+1:4920:40+1:493m--1205.56642mERSultanganj, Bihar
31|==|MVVMaheshi (2) new halt!!  20:46-20:47-1m--1212.14137mERTilakpur, Bihar
32|==|AKNAkbarnagar (3)  20:52+2:2220:53+2:221m--1215.54439mERTilakpur, Bihar
33|==|NATNathnagar (2)  21:01+2:2321:02+2:271m--1225.74048mERBhagalpur, Bihar
34|==!BGPBhagalpur Junction (6)X  21:09+2:2321:19+2:2710m--1230.45049mERBhagalpur, Bihar
35!==!SBOSabaur (3)  21:28+2:3421:29+2:391m--1238.04442mERSabour, Bihar
36!==!LMMLailakh Mamalkha (2)  21:38+2:4121:39+2:441m--1244.65836mERLailakh Mamlkha, Bihar
37!==!GGAGhoga (2)  21:45+2:4621:47+2:572m--1250.46942mERGhoga, Bihar
38!==!EKCEkchari (1)  21:52+2:5921:53+2:591m11256.15237mERNational Highway 80, Bihar
39!==!CLGKahalgaon (2)  21:58+3:0122:00+3:012m11260.54944mERBhagalpur, Bihar
40!==!SVRPShivanarayanpur (2)X  22:14+3:0322:38+2:5324m--1272.04847mERShivanarayanpur, Bihar
41!==!PPTPirpainti (2)  22:49+2:5522:51+3:082m--1280.85653mERBhagalpur, Bihar
42!==!MZCMirza Cheuki (3)X  23:00+3:1123:06+3:136m31289.32638mERBihar, Bihar
43!==!SBGSahibganj Junction (3)X  23:41+3:2223:59+3:2718m11304.45238mERSahibganj, Jharkhand
44!==!SLJSakrigali Junction (3)X  00:08+3:3700:09+3:431m--2312.25345mERSakrigali, Jharkhand
45!==!MJPMaharajpur (2)  00:16+3:4800:17+3:571m--2318.38534mERMoharajpur, Jharkhand
46!==!TLJTaljhari  00:27+4:0200:28+4:151m--2332.55838mERTaljhari, Jharkhand
47!==!KXEKalian Chak  00:33+4:1700:34+4:171m--2337.35845mERKalian Chak, Jharkhand
48!==|TPHTinpahar Junction (3)  00:39+4:2000:42+4:223m22342.15945mERBamangawan, Jharkhand
49|==|BKLEBakudi (3)  00:51+4:2500:52+4:251m--2350.92665mERBakudi, Jharkhand
50|==|BHWBarharwa Junction (3)X  01:10+4:1601:20+4:1710m22358.84436mERBarharwa, Jharkhand
51%==%GMANGumani (3)X  01:30+4:2301:31+4:271m--2366.26731mERGumani, Jharkhand
52%==%KLPKotalpukur (3)XO  01:37+3:1301:39+3:122m--2372.92240mERKotalpukur, Jharkhand
53%==%PKRPakur (2)X  02:10 02:11+3:5702:11 02:16+3:571 5m22384.96337mERDist:- Pakur, Jharkhand
54%==%RJGRajgram (3)  02:26+4:0002:27+4:001m22395.47032mERDist - Birbhum, West Bengal
55%==%MRRMurarai (3)X  02:37+4:3002:38+4:341m--2407.17036mERDist - Birbhum, West Bengal
56%==%NHTNalhati Junction (4)X  02:52+4:4202:54+4:452m22423.42948mERDist - Birbhum, West Bengal
57%==%RPHRampurhat (3)X  03:23+4:0403:43+4:0020m--2437.46741mERDIST - Birbhum, West Bengal
58%==%SNTSainthia Junction (4)  04:08+3:2804:13+3:285m42465.44758mERDist - Birbhum, West Bengal
59%==%AMPAhmadpur Junction (3)O  04:30+5:0104:35 04:32+5:125 2m--2478.72546mERDist - Birbhum, West Bengal
60%==%PNEPrantik (3)  05:08+5:2305:09+5:231m--2493.95148mERDist - Birbhum, West Bengal
61%==%BHPBolpur Shantiniketan (3)  05:14+5:5705:19+5:565m--2498.26059mERDist - Birbhum, West Bengal
62%==%BDHBhedia (2)  05:27+5:2605:28+5:261m--2506.25541mERDist - Bardhaman, West Bengal
63%==%GKHGuskara (2)X  05:40+4:5505:41+4:551m12517.16041mERDist - Bardhaman, West Bengal
64%==%BPSBanpas (3)  05:51+4:5705:52+4:571m--2527.21146mERDist - Bardhaman, West Bengal
65%==/KANKhana Junction (5)X  06:45+4:5606:46+4:561m--2536.85642mERDist - Bardhaman, West Bengal
66/==/BWNBarddhaman Junction (8)XO  07:00+4:0007:20+3:5820m--2549.95034mERDist - Barddhaman, West Bengal
67/==/MYMMemari (4)  07:50+4:3108:00+4:2410m--2575.02225mERMemari, West Bengal
68/==/MUGMagra (3)  09:38+4:2509:43+4:405m--2610.4715mERMagra, West Bengal
69/==/BDCBandel Junction (7)  10:44+3:4810:50+3:496m--2617.23214mERdist - HOOGHLY, West Bengal
70/==/CNSChuchura (3)  10:57-10:58-1m--2620.93615mERDist - HOOGHLY - 712102, West Bengal
71/==/CGRChandan Nagar (3)  11:03+2:5511:05+2:552m--2623.95316mERDist -HOOGHLY - 712136, West Bengal
72/==/SHESeoraphuli Junction (6)  11:17+3:5011:19+3:492m--2634.63013mERBaidyabati, West Bengal
73/==/SRPSerampore (4)X  11:24+3:5011:28+3:494m--2637.12811mERdist - hooghly, West Bengal
74/==/HWHKolkata Howrah Junction (23)•  12:10+2:46-12656.7-10mERHowrah 711101, West Bengal
Scroll to Top
Scroll to Bottom